Time;durP1;ratioP1;P1;durP2;ratioP2;P2;SDS_P1;SDS_P2;PMS_P1;PMS_P2;Temp;Humidity;BMP_temperature;BMP_pressure;BME280_temperature;BME280_humidity;BME280_pressure;Samples;Min_cycle;Max_cycle;Signal;HPM_P1;HPM_P2
2022/11/09 08:05:07;;;;;;;8.13;5.07;;;;;;;;;;12383910;22;10219524;-85
2022/11/09 08:10:09;;;;;;;4.28;1.80;;;;;;;;;;12781628;23;20291;-79
2022/11/09 08:15:16;;;;;;;5.13;2.13;;;;;;;;;;12850088;23;20007;-80
2022/11/09 08:20:17;;;;;;;3.80;1.70;;;;;;;;;;12819445;23;20001;-81
2022/11/09 08:25:18;;;;;;;4.85;2.05;;;;;;;;;;12816434;23;20005;-81
2022/11/09 08:30:20;;;;;;;3.92;2.53;;;;;;;;;;12808646;23;20001;-81
2022/11/09 08:35:24;;;;;;;5.57;2.65;;;;;;;;;;12805761;23;20015;-81
2022/11/09 08:40:25;;;;;;;6.72;3.47;;;;;;;;;;12805470;23;20440;-81
2022/11/09 08:45:26;;;;;;;7.55;4.90;;;;;;;;;;12807742;23;20016;-81
2022/11/09 08:50:31;;;;;;;8.00;5.35;;;;;;;;;;12809830;23;19998;-82
2022/11/09 08:55:32;;;;;;;10.80;7.30;;;;;;;;;;12818305;23;20132;-81
2022/11/09 09:00:33;;;;;;;6.80;4.30;;;;;;;;;;12816269;23;20005;-82
2022/11/09 09:05:34;;;;;;;5.78;4.00;;;;;;;;;;12815287;23;20009;-82
2022/11/09 09:10:36;;;;;;;5.45;3.42;;;;;;;;;;12814845;23;20005;-82
2022/11/09 09:15:37;;;;;;;5.57;3.05;;;;;;;;;;12818033;23;20000;-82
2022/11/09 09:20:38;;;;;;;6.85;3.53;;;;;;;;;;12819683;23;20048;-82
2022/11/09 09:25:39;;;;;;;7.15;3.45;;;;;;;;;;12820677;23;20009;-82
2022/11/09 09:30:40;;;;;;;7.00;3.90;;;;;;;;;;12821256;23;20001;-83
2022/11/09 09:35:42;;;;;;;5.78;2.53;;;;;;;;;;12835262;23;20004;-83
2022/11/09 09:40:53;;;;;;;5.28;2.30;;;;;;;;;;12826110;23;20071;-83
2022/11/09 09:45:55;;;;;;;6.82;2.72;;;;;;;;;;12819689;23;20028;-82
2022/11/09 09:51:00;;;;;;;5.55;2.20;;;;;;;;;;12813319;23;20001;-82
2022/11/09 09:56:09;;;;;;;5.72;2.85;;;;;;;;;;12815522;23;20012;-82
2022/11/09 10:01:19;;;;;;;6.20;2.92;;;;;;;;;;12816584;23;20009;-81
2022/11/09 10:06:38;;;;;;;5.18;2.67;;;;;;;;;;12814811;23;20523;-81
2022/11/09 10:11:42;;;;;;;4.93;2.20;;;;;;;;;;12777118;23;20040;-81
2022/11/09 10:17:02;;;;;;;4.53;2.00;;;;;;;;;;12755397;23;20454;-81
2022/11/09 10:22:22;;;;;;;5.03;2.00;;;;;;;;;;12773966;23;20013;-81
2022/11/09 10:27:30;;;;;;;6.25;2.38;;;;;;;;;;12774935;23;20005;-81
2022/11/09 10:32:37;;;;;;;9.18;2.10;;;;;;;;;;12753469;23;20072;-81
2022/11/09 10:37:39;;;;;;;4.43;2.22;;;;;;;;;;12775014;23;20001;-82
2022/11/09 10:42:56;;;;;;;4.40;2.47;;;;;;;;;;12780221;23;20081;-82
2022/11/09 10:48:31;;;;;;;;;;;;;;;;;;;;;
2022/11/09 10:53:33;;;;;;;5.97;2.40;;;;;;;;;;12754855;23;20016;-81
2022/11/09 11:04:41;;;;;;;5.88;1.40;;;;;;;;;;12734293;23;20311;-83
2022/11/09 11:09:43;;;;;;;4.40;1.65;;;;;;;;;;12713306;23;20017;-81
2022/11/09 11:14:44;;;;;;;;;;;;;;;;;;12833044;23;20001;-81
2022/11/09 11:19:45;;;;;;;4.90;1.98;;;;;;;;;;12777229;23;19938;-81
2022/11/09 11:24:51;;;;;;;3.20;1.67;;;;;;;;;;12822504;23;20005;-83
2022/11/09 11:29:56;;;;;;;4.70;1.63;;;;;;;;;;12834751;23;20079;-82
2022/11/09 11:34:57;;;;;;;4.40;1.38;;;;;;;;;;12821770;23;20009;-81
2022/11/09 11:40:01;;;;;;;4.35;1.45;;;;;;;;;;12813471;23;20005;-81
2022/11/09 11:45:17;;;;;;;4.55;1.30;;;;;;;;;;12816906;23;20012;-81
2022/11/09 11:50:21;;;;;;;5.45;1.30;;;;;;;;;;12818764;23;20410;-82
2022/11/09 11:55:32;;;;;;;6.07;3.75;;;;;;;;;;12816807;23;20012;-80
2022/11/09 12:00:41;;;;;;;4.70;2.25;;;;;;;;;;12822321;23;20013;-81
2022/11/09 12:05:41;;;;;;;4.25;1.60;;;;;;;;;;12822223;23;20357;-82
2022/11/09 12:10:51;;;;;;;2.88;1.30;;;;;;;;;;12819028;23;20028;-81
2022/11/09 12:15:52;;;;;;;4.53;1.70;;;;;;;;;;12821734;23;20028;-81
2022/11/09 12:20:57;;;;;;;3.42;1.25;;;;;;;;;;12824391;23;20072;-81
2022/11/09 12:26:01;;;;;;;3.78;1.42;;;;;;;;;;12828376;23;20008;-81
2022/11/09 12:31:06;;;;;;;5.30;1.48;;;;;;;;;;12825951;23;20005;-82
2022/11/09 12:36:11;;;;;;;2.17;1.10;;;;;;;;;;12824200;23;20009;-82
2022/11/09 12:41:14;;;;;;;3.05;1.20;;;;;;;;;;12824894;23;20056;-81
2022/11/09 12:46:17;;;;;;;5.78;1.40;;;;;;;;;;12827711;23;20036;-82
2022/11/09 12:51:19;;;;;;;3.38;1.48;;;;;;;;;;12823727;23;20068;-83
2022/11/09 12:56:22;;;;;;;4.47;1.40;;;;;;;;;;12825948;23;20016;-82
2022/11/09 13:01:26;;;;;;;4.32;1.70;;;;;;;;;;12820405;23;20015;-82
2022/11/09 13:06:31;;;;;;;5.57;1.20;;;;;;;;;;12823138;23;20012;-82
2022/11/09 13:11:40;;;;;;;4.75;1.60;;;;;;;;;;12825655;23;20092;-82
2022/11/09 13:16:41;;;;;;;4.50;1.08;;;;;;;;;;12829317;23;20053;-83
2022/11/09 13:21:42;;;;;;;3.65;1.40;;;;;;;;;;12838649;23;20008;-82
2022/11/09 13:26:46;;;;;;;4.40;1.70;;;;;;;;;;12819860;23;20001;-82
2022/11/09 13:32:03;;;;;;;4.15;1.35;;;;;;;;;;12821478;23;19997;-82
2022/11/09 13:37:23;;;;;;;3.35;1.30;;;;;;;;;;12820794;23;20009;-82
2022/11/09 13:42:28;;;;;;;3.42;1.20;;;;;;;;;;12820175;23;20036;-82
2022/11/09 13:47:34;;;;;;;4.28;1.40;;;;;;;;;;12822322;23;20005;-82
2022/11/09 13:52:47;;;;;;;4.30;1.27;;;;;;;;;;12819529;23;20001;-83
2022/11/09 13:57:48;;;;;;;4.03;1.33;;;;;;;;;;12821530;23;20040;-83
2022/11/09 14:02:57;;;;;;;5.40;1.40;;;;;;;;;;12815472;23;20375;-81
2022/11/09 14:08:00;;;;;;;4.70;1.27;;;;;;;;;;12819236;23;20043;-81
2022/11/09 14:13:20;;;;;;;3.45;1.30;;;;;;;;;;12713669;23;20096;-79
2022/11/09 14:18:24;;;;;;;3.13;1.30;;;;;;;;;;12689389;23;20030;-80
2022/11/09 14:23:29;;;;;;;4.10;1.60;;;;;;;;;;12688188;23;20119;-80
2022/11/09 14:28:33;;;;;;;4.38;1.50;;;;;;;;;;12687780;23;20383;-80
2022/11/09 14:33:35;;;;;;;4.25;1.40;;;;;;;;;;12687287;23;20013;-80
2022/11/09 14:38:43;;;;;;;3.75;1.58;;;;;;;;;;12684331;23;20405;-79
2022/11/09 14:43:44;;;;;;;4.97;1.55;;;;;;;;;;12684299;23;20338;-81
2022/11/09 14:48:53;;;;;;;4.13;1.42;;;;;;;;;;12691164;23;20359;-81
2022/11/09 14:53:55;;;;;;;5.63;1.50;;;;;;;;;;12691409;23;20002;-82
2022/11/09 14:58:57;;;;;;;7.32;1.67;;;;;;;;;;12693837;23;20127;-81
2022/11/09 15:04:25;;;;;;;5.25;1.40;;;;;;;;;;12688543;23;20012;-81
2022/11/09 15:09:34;;;;;;;5.18;1.45;;;;;;;;;;12698636;23;20378;-81
2022/11/09 15:14:35;;;;;;;3.03;1.48;;;;;;;;;;12723512;23;20342;-82
2022/11/09 15:19:38;;;;;;;6.15;1.45;;;;;;;;;;12752569;23;20357;-81
2022/11/09 15:24:47;;;;;;;4.35;1.80;;;;;;;;;;12728497;23;20006;-82
2022/11/09 15:29:48;;;;;;;4.38;1.50;;;;;;;;;;12728042;23;20070;-80
2022/11/09 15:34:53;;;;;;;5.55;1.95;;;;;;;;;;12730926;23;20014;-79
2022/11/09 15:39:55;;;;;;;9.07;1.80;;;;;;;;;;12728088;23;20036;-83
2022/11/09 15:44:59;;;;;;;5.60;1.52;;;;;;;;;;12733155;23;20016;-83
2022/11/09 15:50:02;;;;;;;4.97;1.83;;;;;;;;;;12732376;23;20001;-81
2022/11/09 15:55:03;;;;;;;4.95;1.75;;;;;;;;;;12731722;23;20001;-82
2022/11/09 16:00:04;;;;;;;4.70;1.77;;;;;;;;;;12755653;23;20001;-83
2022/11/09 16:05:06;;;;;;;4.13;2.00;;;;;;;;;;12730028;23;20434;-82
2022/11/09 16:10:12;;;;;;;5.95;2.20;;;;;;;;;;12710008;23;20009;-82
2022/11/09 16:15:13;;;;;;;6.00;2.58;;;;;;;;;;12742545;23;20012;-82
2022/11/09 16:20:18;;;;;;;5.03;2.42;;;;;;;;;;12738485;23;20006;-85
2022/11/09 16:25:57;;;;;;;4.35;1.80;;;;;;;;;;12740519;23;20032;-84
2022/11/09 16:30:58;;;;;;;4.43;1.70;;;;;;;;;;12775087;23;20004;-85
2022/11/09 16:36:08;;;;;;;6.97;2.03;;;;;;;;;;12792075;23;20006;-84
2022/11/09 16:41:09;;;;;;;5.25;1.85;;;;;;;;;;12762340;23;20010;-84
2022/11/09 16:46:19;;;;;;;4.57;2.30;;;;;;;;;;12735545;23;20013;-83
2022/11/09 16:51:21;;;;;;;5.30;2.70;;;;;;;;;;12738220;23;20005;-83
2022/11/09 16:56:22;;;;;;;5.07;1.92;;;;;;;;;;12734471;23;20009;-83
2022/11/09 17:01:23;;;;;;;4.07;1.60;;;;;;;;;;12732700;23;20010;-84
2022/11/09 17:06:25;;;;;;;4.78;1.63;;;;;;;;;;12735139;23;20423;-83
2022/11/09 17:11:26;;;;;;;5.47;2.20;;;;;;;;;;12695929;23;20050;-85
2022/11/09 17:16:28;;;;;;;5.88;1.83;;;;;;;;;;12693565;23;20041;-85
2022/11/09 17:21:34;;;;;;;3.60;1.50;;;;;;;;;;12695860;23;20014;-84
2022/11/09 17:26:47;;;;;;;4.38;1.42;;;;;;;;;;12703283;23;20102;-85
2022/11/09 17:31:52;;;;;;;3.58;1.70;;;;;;;;;;12686722;23;20013;-87
2022/11/09 17:36:56;;;;;;;3.90;1.52;;;;;;;;;;12660264;23;20326;-87
2022/11/09 17:42:00;;;;;;;7.28;1.85;;;;;;;;;;12683605;23;20005;-87
2022/11/09 17:47:23;;;;;;;2.65;1.25;;;;;;;;;;12683379;23;20006;-87
2022/11/09 17:58:07;;;;;;;5.80;1.92;;;;;;;;;;12686329;23;20033;-87
2022/11/09 18:03:18;;;;;;;5.47;1.80;;;;;;;;;;12683326;23;20094;-86
2022/11/09 18:08:19;;;;;;;4.55;1.80;;;;;;;;;;12685737;23;20046;-86
2022/11/09 18:13:20;;;;;;;5.28;2.05;;;;;;;;;;12721332;23;20013;-86
2022/11/09 18:18:24;;;;;;;5.03;2.55;;;;;;;;;;12721279;23;20143;-86
2022/11/09 18:23:35;;;;;;;6.43;3.45;;;;;;;;;;12781943;23;20028;-85
2022/11/09 18:28:36;;;;;;;7.03;3.10;;;;;;;;;;12766914;23;20057;-85
2022/11/09 18:33:43;;;;;;;10.48;5.80;;;;;;;;;;12760984;23;20009;-86
2022/11/09 18:39:03;;;;;;;6.43;2.90;;;;;;;;;;12742342;23;20397;-86
2022/11/09 18:44:04;;;;;;;7.40;2.70;;;;;;;;;;12742810;23;20055;-85
2022/11/09 18:49:25;;;;;;;10.88;5.32;;;;;;;;;;12734556;23;20072;-85
2022/11/09 18:54:46;;;;;;;8.70;5.63;;;;;;;;;;12735877;23;20012;-85
2022/11/09 19:00:07;;;;;;;8.15;5.05;;;;;;;;;;12662292;23;20469;-85
2022/11/09 19:05:10;;;;;;;10.45;6.95;;;;;;;;;;12731341;23;20092;-84
2022/11/09 19:10:49;;;;;;;8.35;3.97;;;;;;;;;;12734046;23;20016;-86
2022/11/09 19:15:53;;;;;;;8.27;5.00;;;;;;;;;;12682873;23;20435;-87
2022/11/09 19:20:55;;;;;;;7.70;3.17;;;;;;;;;;12655437;23;20002;-87
2022/11/09 19:25:58;;;;;;;6.88;2.60;;;;;;;;;;12655658;23;20017;-87
2022/11/09 19:31:03;;;;;;;7.50;2.05;;;;;;;;;;12655901;23;20002;-86
2022/11/09 19:36:07;;;;;;;5.90;2.45;;;;;;;;;;12656956;23;20006;-86
2022/11/09 19:41:30;;;;;;;6.63;2.85;;;;;;;;;;12672922;23;20006;-86
2022/11/09 19:46:34;;;;;;;7.13;3.40;;;;;;;;;;12655705;23;20006;-87
2022/11/09 19:51:35;;;;;;;6.30;2.38;;;;;;;;;;12656088;23;20065;-87
2022/11/09 19:56:40;;;;;;;5.75;2.67;;;;;;;;;;12655770;23;20381;-86
2022/11/09 20:01:52;;;;;;;8.10;1.83;;;;;;;;;;12681494;23;20311;-87
2022/11/09 20:06:53;;;;;;;5.47;2.95;;;;;;;;;;12636621;23;20097;-87
2022/11/09 20:17:17;;;;;;;5.22;2.40;;;;;;;;;;12749364;23;20081;-87
2022/11/09 20:22:19;;;;;;;5.63;2.38;;;;;;;;;;12723346;23;19998;-87
